sensor_id;sensor_type;location;lat;lon;timestamp;P1;durP1;ratioP1;P2;durP2;ratioP2
3613;SDS011;1821;50.936;6.854;2023-06-26T00:00:38;6.82;;;6.00;;
3613;SDS011;1821;50.936;6.854;2023-06-26T00:01:21;8.00;;;6.47;;
3613;SDS011;1821;50.936;6.854;2023-06-26T00:02:03;8.13;;;6.22;;
3613;SDS011;1821;50.936;6.854;2023-06-26T00:02:46;7.57;;;6.45;;
3613;SDS011;1821;50.936;6.854;2023-06-26T00:03:28;7.78;;;6.70;;
3613;SDS011;1821;50.936;6.854;2023-06-26T00:04:10;9.13;;;7.20;;
3613;SDS011;1821;50.936;6.854;2023-06-26T00:04:56;7.72;;;6.93;;
3613;SDS011;1821;50.936;6.854;2023-06-26T00:05:38;7.27;;;6.57;;
3613;SDS011;1821;50.936;6.854;2023-06-26T00:06:20;8.70;;;6.95;;
3613;SDS011;1821;50.936;6.854;2023-06-26T00:07:05;8.60;;;7.00;;
3613;SDS011;1821;50.936;6.854;2023-06-26T00:07:48;7.90;;;6.20;;
3613;SDS011;1821;50.936;6.854;2023-06-26T00:08:30;7.38;;;6.38;;
3613;SDS011;1821;50.936;6.854;2023-06-26T00:09:12;8.18;;;6.30;;
3613;SDS011;1821;50.936;6.854;2023-06-26T00:09:55;9.20;;;6.72;;
3613;SDS011;1821;50.936;6.854;2023-06-26T00:10:37;8.15;;;6.90;;
3613;SDS011;1821;50.936;6.854;2023-06-26T00:11:20;7.10;;;6.40;;
3613;SDS011;1821;50.936;6.854;2023-06-26T00:12:03;6.82;;;6.13;;
3613;SDS011;1821;50.936;6.854;2023-06-26T00:12:45;8.35;;;6.88;;
3613;SDS011;1821;50.936;6.854;2023-06-26T00:13:27;7.90;;;6.60;;
3613;SDS011;1821;50.936;6.854;2023-06-26T00:14:09;8.68;;;6.70;;
3613;SDS011;1821;50.936;6.854;2023-06-26T00:14:52;8.02;;;6.45;;
3613;SDS011;1821;50.936;6.854;2023-06-26T00:15:34;8.38;;;6.60;;
3613;SDS011;1821;50.936;6.854;2023-06-26T00:16:17;8.32;;;6.70;;
3613;SDS011;1821;50.936;6.854;2023-06-26T00:16:59;8.68;;;6.38;;
3613;SDS011;1821;50.936;6.854;2023-06-26T00:17:43;8.18;;;6.55;;
3613;SDS011;1821;50.936;6.854;2023-06-26T00:18:29;8.20;;;6.75;;
3613;SDS011;1821;50.936;6.854;2023-06-26T00:19:13;8.35;;;6.97;;
3613;SDS011;1821;50.936;6.854;2023-06-26T00:19:55;6.80;;;6.10;;
3613;SDS011;1821;50.936;6.854;2023-06-26T00:20:38;7.65;;;6.22;;
3613;SDS011;1821;50.936;6.854;2023-06-26T00:21:21;12.23;;;7.40;;
3613;SDS011;1821;50.936;6.854;2023-06-26T00:22:03;9.90;;;7.10;;
3613;SDS011;1821;50.936;6.854;2023-06-26T00:22:46;8.57;;;6.90;;
3613;SDS011;1821;50.936;6.854;2023-06-26T00:23:28;8.52;;;7.00;;
3613;SDS011;1821;50.936;6.854;2023-06-26T00:24:12;8.40;;;6.60;;
3613;SDS011;1821;50.936;6.854;2023-06-26T00:24:54;8.70;;;6.50;;
3613;SDS011;1821;50.936;6.854;2023-06-26T00:25:37;8.07;;;7.20;;
3613;SDS011;1821;50.936;6.854;2023-06-26T00:26:19;7.97;;;6.68;;
3613;SDS011;1821;50.936;6.854;2023-06-26T00:27:01;10.50;;;6.63;;
3613;SDS011;1821;50.936;6.854;2023-06-26T00:27:46;8.95;;;6.05;;
3613;SDS011;1821;50.936;6.854;2023-06-26T00:28:30;8.45;;;6.50;;
3613;SDS011;1821;50.936;6.854;2023-06-26T00:29:13;7.78;;;6.35;;
3613;SDS011;1821;50.936;6.854;2023-06-26T00:29:55;8.60;;;6.80;;
3613;SDS011;1821;50.936;6.854;2023-06-26T00:30:37;8.30;;;6.85;;
3613;SDS011;1821;50.936;6.854;2023-06-26T00:31:20;7.90;;;6.80;;
3613;SDS011;1821;50.936;6.854;2023-06-26T00:32:03;8.40;;;7.10;;
3613;SDS011;1821;50.936;6.854;2023-06-26T00:32:45;7.22;;;6.05;;
3613;SDS011;1821;50.936;6.854;2023-06-26T00:33:27;8.45;;;5.63;;
3613;SDS011;1821;50.936;6.854;2023-06-26T00:34:10;8.48;;;6.47;;
3613;SDS011;1821;50.936;6.854;2023-06-26T00:34:52;7.18;;;6.47;;
3613;SDS011;1821;50.936;6.854;2023-06-26T00:35:35;7.80;;;6.78;;
3613;SDS011;1821;50.936;6.854;2023-06-26T00:36:17;7.72;;;6.85;;
3613;SDS011;1821;50.936;6.854;2023-06-26T00:36:59;6.90;;;6.20;;
3613;SDS011;1821;50.936;6.854;2023-06-26T00:37:42;7.70;;;6.15;;
3613;SDS011;1821;50.936;6.854;2023-06-26T00:38:24;9.05;;;6.43;;
3613;SDS011;1821;50.936;6.854;2023-06-26T00:39:06;7.35;;;5.85;;
3613;SDS011;1821;50.936;6.854;2023-06-26T00:39:49;8.10;;;6.47;;
3613;SDS011;1821;50.936;6.854;2023-06-26T00:40:31;7.35;;;6.60;;
3613;SDS011;1821;50.936;6.854;2023-06-26T00:41:13;7.93;;;6.82;;
3613;SDS011;1821;50.936;6.854;2023-06-26T00:41:56;8.00;;;6.72;;
3613;SDS011;1821;50.936;6.854;2023-06-26T00:42:38;7.30;;;6.38;;
3613;SDS011;1821;50.936;6.854;2023-06-26T00:43:23;7.70;;;6.47;;
3613;SDS011;1821;50.936;6.854;2023-06-26T00:44:05;7.40;;;6.70;;
3613;SDS011;1821;50.936;6.854;2023-06-26T00:44:48;7.30;;;6.50;;
3613;SDS011;1821;50.936;6.854;2023-06-26T00:45:30;7.93;;;6.63;;
3613;SDS011;1821;50.936;6.854;2023-06-26T00:46:23;8.43;;;6.68;;
3613;SDS011;1821;50.936;6.854;2023-06-26T00:47:06;9.75;;;6.60;;
3613;SDS011;1821;50.936;6.854;2023-06-26T00:47:51;8.40;;;6.25;;
3613;SDS011;1821;50.936;6.854;2023-06-26T00:48:33;7.30;;;6.35;;
3613;SDS011;1821;50.936;6.854;2023-06-26T00:49:15;6.93;;;6.13;;
3613;SDS011;1821;50.936;6.854;2023-06-26T00:50:00;7.15;;;6.40;;
3613;SDS011;1821;50.936;6.854;2023-06-26T00:50:43;7.65;;;6.65;;
3613;SDS011;1821;50.936;6.854;2023-06-26T00:51:27;7.82;;;6.38;;
3613;SDS011;1821;50.936;6.854;2023-06-26T00:52:09;8.02;;;6.80;;
3613;SDS011;1821;50.936;6.854;2023-06-26T00:52:52;9.10;;;6.80;;
3613;SDS011;1821;50.936;6.854;2023-06-26T00:53:38;8.45;;;6.35;;
3613;SDS011;1821;50.936;6.854;2023-06-26T00:54:20;7.75;;;5.88;;
3613;SDS011;1821;50.936;6.854;2023-06-26T00:55:03;8.73;;;5.90;;
3613;SDS011;1821;50.936;6.854;2023-06-26T00:55:46;9.25;;;6.38;;
3613;SDS011;1821;50.936;6.854;2023-06-26T00:56:29;6.70;;;6.00;;
3613;SDS011;1821;50.936;6.854;2023-06-26T00:57:12;7.35;;;6.28;;
3613;SDS011;1821;50.936;6.854;2023-06-26T00:57:55;8.25;;;6.63;;
3613;SDS011;1821;50.936;6.854;2023-06-26T00:58:38;8.48;;;6.72;;
3613;SDS011;1821;50.936;6.854;2023-06-26T00:59:20;7.65;;;6.32;;
3613;SDS011;1821;50.936;6.854;2023-06-26T01:00:02;7.07;;;6.25;;
3613;SDS011;1821;50.936;6.854;2023-06-26T01:00:45;9.00;;;6.03;;
3613;SDS011;1821;50.936;6.854;2023-06-26T01:01:27;8.90;;;6.15;;
3613;SDS011;1821;50.936;6.854;2023-06-26T01:02:09;8.30;;;6.00;;
3613;SDS011;1821;50.936;6.854;2023-06-26T01:02:52;7.25;;;6.10;;
3613;SDS011;1821;50.936;6.854;2023-06-26T01:03:34;7.03;;;6.30;;
3613;SDS011;1821;50.936;6.854;2023-06-26T01:04:18;7.10;;;6.40;;
3613;SDS011;1821;50.936;6.854;2023-06-26T01:05:01;7.90;;;6.03;;
3613;SDS011;1821;50.936;6.854;2023-06-26T01:05:47;8.05;;;6.45;;
3613;SDS011;1821;50.936;6.854;2023-06-26T01:06:33;6.90;;;6.15;;
3613;SDS011;1821;50.936;6.854;2023-06-26T01:07:21;6.80;;;5.93;;
3613;SDS011;1821;50.936;6.854;2023-06-26T01:08:04;7.25;;;5.68;;
3613;SDS011;1821;50.936;6.854;2023-06-26T01:08:47;9.52;;;6.50;;
3613;SDS011;1821;50.936;6.854;2023-06-26T01:09:30;8.88;;;6.38;;
3613;SDS011;1821;50.936;6.854;2023-06-26T01:10:13;7.45;;;6.35;;
3613;SDS011;1821;50.936;6.854;2023-06-26T01:10:56;7.13;;;6.30;;
3613;SDS011;1821;50.936;6.854;2023-06-26T01:11:41;7.53;;;6.72;;
3613;SDS011;1821;50.936;6.854;2023-06-26T01:12:23;7.60;;;6.90;;
3613;SDS011;1821;50.936;6.854;2023-06-26T01:13:06;7.80;;;6.40;;
3613;SDS011;1821;50.936;6.854;2023-06-26T01:13:48;6.82;;;6.13;;
3613;SDS011;1821;50.936;6.854;2023-06-26T01:14:31;7.10;;;6.20;;
3613;SDS011;1821;50.936;6.854;2023-06-26T01:15:16;7.78;;;6.43;;
3613;SDS011;1821;50.936;6.854;2023-06-26T01:16:01;8.93;;;6.63;;
3613;SDS011;1821;50.936;6.854;2023-06-26T01:16:44;7.22;;;5.95;;
3613;SDS011;1821;50.936;6.854;2023-06-26T01:17:30;8.55;;;6.10;;
3613;SDS011;1821;50.936;6.854;2023-06-26T01:18:13;8.15;;;6.40;;
3613;SDS011;1821;50.936;6.854;2023-06-26T01:18:56;8.25;;;6.28;;
3613;SDS011;1821;50.936;6.854;2023-06-26T01:19:42;7.30;;;5.30;;
3613;SDS011;1821;50.936;6.854;2023-06-26T01:20:25;8.23;;;6.20;;
3613;SDS011;1821;50.936;6.854;2023-06-26T01:21:09;7.80;;;6.05;;
3613;SDS011;1821;50.936;6.854;2023-06-26T01:21:54;7.97;;;6.30;;
3613;SDS011;1821;50.936;6.854;2023-06-26T01:22:42;7.03;;;6.32;;
3613;SDS011;1821;50.936;6.854;2023-06-26T01:23:37;6.53;;;5.72;;
3613;SDS011;1821;50.936;6.854;2023-06-26T01:24:20;7.25;;;6.22;;
3613;SDS011;1821;50.936;6.854;2023-06-26T01:26:53;7.57;;;6.25;;
3613;SDS011;1821;50.936;6.854;2023-06-26T01:27:38;9.30;;;5.93;;
3613;SDS011;1821;50.936;6.854;2023-06-26T01:28:21;6.20;;;5.60;;
3613;SDS011;1821;50.936;6.854;2023-06-26T01:29:04;6.60;;;5.78;;
3613;SDS011;1821;50.936;6.854;2023-06-26T01:29:49;8.00;;;6.60;;
3613;SDS011;1821;50.936;6.854;2023-06-26T01:30:32;7.47;;;6.35;;
3613;SDS011;1821;50.936;6.854;2023-06-26T01:31:15;6.70;;;5.75;;
3613;SDS011;1821;50.936;6.854;2023-06-26T01:31:57;7.40;;;6.05;;
3613;SDS011;1821;50.936;6.854;2023-06-26T01:32:40;7.80;;;5.90;;
3613;SDS011;1821;50.936;6.854;2023-06-26T01:33:22;7.95;;;6.22;;
3613;SDS011;1821;50.936;6.854;2023-06-26T01:34:07;6.72;;;5.90;;
3613;SDS011;1821;50.936;6.854;2023-06-26T01:34:49;7.75;;;5.65;;
3613;SDS011;1821;50.936;6.854;2023-06-26T01:35:32;7.85;;;6.45;;
3613;SDS011;1821;50.936;6.854;2023-06-26T01:36:14;7.93;;;6.40;;
3613;SDS011;1821;50.936;6.854;2023-06-26T01:36:59;7.28;;;5.88;;
3613;SDS011;1821;50.936;6.854;2023-06-26T01:37:41;6.70;;;5.80;;
3613;SDS011;1821;50.936;6.854;2023-06-26T01:38:23;6.97;;;5.75;;
3613;SDS011;1821;50.936;6.854;2023-06-26T01:39:07;7.82;;;5.85;;
3613;SDS011;1821;50.936;6.854;2023-06-26T01:39:49;8.32;;;6.68;;
3613;SDS011;1821;50.936;6.854;2023-06-26T01:40:34;7.40;;;6.10;;
3613;SDS011;1821;50.936;6.854;2023-06-26T01:41:17;7.53;;;6.13;;
3613;SDS011;1821;50.936;6.854;2023-06-26T01:42:00;8.25;;;6.60;;
3613;SDS011;1821;50.936;6.854;2023-06-26T01:42:42;7.75;;;6.95;;
3613;SDS011;1821;50.936;6.854;2023-06-26T01:44:49;6.70;;;6.00;;
3613;SDS011;1821;50.936;6.854;2023-06-26T01:45:36;7.18;;;6.00;;
3613;SDS011;1821;50.936;6.854;2023-06-26T01:47:02;7.10;;;5.80;;
3613;SDS011;1821;50.936;6.854;2023-06-26T01:47:46;7.47;;;6.40;;
3613;SDS011;1821;50.936;6.854;2023-06-26T01:48:34;8.90;;;6.90;;
3613;SDS011;1821;50.936;6.854;2023-06-26T01:50:11;7.45;;;6.03;;
3613;SDS011;1821;50.936;6.854;2023-06-26T01:50:54;7.20;;;5.90;;
3613;SDS011;1821;50.936;6.854;2023-06-26T01:51:42;7.07;;;6.30;;
3613;SDS011;1821;50.936;6.854;2023-06-26T01:53:15;6.53;;;5.85;;
3613;SDS011;1821;50.936;6.854;2023-06-26T01:54:01;7.43;;;5.90;;
3613;SDS011;1821;50.936;6.854;2023-06-26T01:54:49;8.00;;;6.30;;
3613;SDS011;1821;50.936;6.854;2023-06-26T01:56:19;7.78;;;6.00;;
3613;SDS011;1821;50.936;6.854;2023-06-26T01:57:01;7.18;;;6.03;;
3613;SDS011;1821;50.936;6.854;2023-06-26T01:57:45;6.65;;;5.90;;
3613;SDS011;1821;50.936;6.854;2023-06-26T01:58:29;7.70;;;6.20;;
3613;SDS011;1821;50.936;6.854;2023-06-26T01:59:11;7.55;;;6.68;;
3613;SDS011;1821;50.936;6.854;2023-06-26T02:00:00;7.90;;;6.28;;
3613;SDS011;1821;50.936;6.854;2023-06-26T02:00:43;7.75;;;6.25;;
3613;SDS011;1821;50.936;6.854;2023-06-26T02:01:25;7.72;;;6.60;;
3613;SDS011;1821;50.936;6.854;2023-06-26T02:02:07;8.07;;;7.00;;
3613;SDS011;1821;50.936;6.854;2023-06-26T02:02:50;8.43;;;6.25;;
3613;SDS011;1821;50.936;6.854;2023-06-26T02:03:32;8.80;;;6.55;;
3613;SDS011;1821;50.936;6.854;2023-06-26T02:04:14;7.18;;;6.47;;
3613;SDS011;1821;50.936;6.854;2023-06-26T02:04:59;7.10;;;6.13;;
3613;SDS011;1821;50.936;6.854;2023-06-26T02:05:41;7.65;;;6.30;;
3613;SDS011;1821;50.936;6.854;2023-06-26T02:06:24;7.45;;;6.40;;
3613;SDS011;1821;50.936;6.854;2023-06-26T02:07:06;7.82;;;6.45;;
3613;SDS011;1821;50.936;6.854;2023-06-26T02:07:51;7.85;;;6.65;;
3613;SDS011;1821;50.936;6.854;2023-06-26T02:08:33;7.80;;;6.70;;
3613;SDS011;1821;50.936;6.854;2023-06-26T02:09:15;7.75;;;6.88;;
3613;SDS011;1821;50.936;6.854;2023-06-26T02:09:59;8.30;;;6.90;;
3613;SDS011;1821;50.936;6.854;2023-06-26T02:10:41;7.15;;;6.22;;
3613;SDS011;1821;50.936;6.854;2023-06-26T02:11:23;7.50;;;5.93;;
3613;SDS011;1821;50.936;6.854;2023-06-26T02:12:06;8.07;;;5.80;;
3613;SDS011;1821;50.936;6.854;2023-06-26T02:12:48;7.05;;;6.13;;
3613;SDS011;1821;50.936;6.854;2023-06-26T02:13:31;6.85;;;6.15;;
3613;SDS011;1821;50.936;6.854;2023-06-26T02:14:13;7.20;;;6.20;;
3613;SDS011;1821;50.936;6.854;2023-06-26T02:14:56;7.50;;;6.60;;
3613;SDS011;1821;50.936;6.854;2023-06-26T02:15:39;7.63;;;6.88;;
3613;SDS011;1821;50.936;6.854;2023-06-26T02:16:21;7.13;;;6.43;;
3613;SDS011;1821;50.936;6.854;2023-06-26T02:17:04;7.78;;;6.50;;
3613;SDS011;1821;50.936;6.854;2023-06-26T02:17:46;8.10;;;7.07;;
3613;SDS011;1821;50.936;6.854;2023-06-26T02:18:31;8.82;;;6.97;;
3613;SDS011;1821;50.936;6.854;2023-06-26T02:19:16;8.80;;;6.50;;
3613;SDS011;1821;50.936;6.854;2023-06-26T02:20:03;9.20;;;6.65;;
3613;SDS011;1821;50.936;6.854;2023-06-26T02:20:45;8.50;;;6.47;;
3613;SDS011;1821;50.936;6.854;2023-06-26T02:21:27;7.63;;;6.28;;
3613;SDS011;1821;50.936;6.854;2023-06-26T02:22:10;7.57;;;6.25;;
3613;SDS011;1821;50.936;6.854;2023-06-26T02:22:54;8.05;;;7.18;;
3613;SDS011;1821;50.936;6.854;2023-06-26T02:23:36;9.10;;;6.40;;
3613;SDS011;1821;50.936;6.854;2023-06-26T02:24:21;7.53;;;6.72;;
3613;SDS011;1821;50.936;6.854;2023-06-26T02:25:04;8.48;;;6.90;;
3613;SDS011;1821;50.936;6.854;2023-06-26T02:25:46;7.75;;;6.93;;
3613;SDS011;1821;50.936;6.854;2023-06-26T02:26:28;8.07;;;7.28;;
3613;SDS011;1821;50.936;6.854;2023-06-26T02:27:11;8.32;;;6.85;;
3613;SDS011;1821;50.936;6.854;2023-06-26T02:27:56;8.70;;;7.30;;
3613;SDS011;1821;50.936;6.854;2023-06-26T02:28:38;7.78;;;6.38;;
3613;SDS011;1821;50.936;6.854;2023-06-26T02:29:21;8.15;;;6.47;;
3613;SDS011;1821;50.936;6.854;2023-06-26T02:30:03;8.60;;;7.22;;
3613;SDS011;1821;50.936;6.854;2023-06-26T02:30:46;8.35;;;7.43;;
3613;SDS011;1821;50.936;6.854;2023-06-26T02:31:28;8.30;;;7.32;;
3613;SDS011;1821;50.936;6.854;2023-06-26T02:32:11;9.93;;;7.70;;
3613;SDS011;1821;50.936;6.854;2023-06-26T02:32:53;7.75;;;6.70;;
3613;SDS011;1821;50.936;6.854;2023-06-26T02:33:35;8.15;;;7.35;;
3613;SDS011;1821;50.936;6.854;2023-06-26T02:34:17;8.48;;;7.57;;
3613;SDS011;1821;50.936;6.854;2023-06-26T02:35:00;7.35;;;6.35;;
3613;SDS011;1821;50.936;6.854;2023-06-26T02:35:42;7.82;;;6.65;;
3613;SDS011;1821;50.936;6.854;2023-06-26T02:36:25;7.82;;;6.53;;
3613;SDS011;1821;50.936;6.854;2023-06-26T02:37:07;7.82;;;7.03;;
3613;SDS011;1821;50.936;6.854;2023-06-26T02:37:49;9.27;;;7.10;;
3613;SDS011;1821;50.936;6.854;2023-06-26T02:38:32;9.80;;;6.80;;
3613;SDS011;1821;50.936;6.854;2023-06-26T02:39:16;8.07;;;6.60;;
3613;SDS011;1821;50.936;6.854;2023-06-26T02:39:58;8.15;;;7.30;;
3613;SDS011;1821;50.936;6.854;2023-06-26T02:40:41;8.75;;;7.55;;
3613;SDS011;1821;50.936;6.854;2023-06-26T02:41:23;8.15;;;6.80;;
3613;SDS011;1821;50.936;6.854;2023-06-26T02:42:06;7.38;;;6.63;;
3613;SDS011;1821;50.936;6.854;2023-06-26T02:42:48;8.70;;;7.10;;
3613;SDS011;1821;50.936;6.854;2023-06-26T02:43:30;8.02;;;7.00;;
3613;SDS011;1821;50.936;6.854;2023-06-26T02:44:13;8.30;;;6.97;;
3613;SDS011;1821;50.936;6.854;2023-06-26T02:44:55;8.60;;;6.95;;
3613;SDS011;1821;50.936;6.854;2023-06-26T02:45:38;8.25;;;7.15;;
3613;SDS011;1821;50.936;6.854;2023-06-26T02:46:20;8.13;;;6.78;;
3613;SDS011;1821;50.936;6.854;2023-06-26T02:47:03;9.45;;;7.40;;
3613;SDS011;1821;50.936;6.854;2023-06-26T02:47:46;8.85;;;7.95;;
3613;SDS011;1821;50.936;6.854;2023-06-26T02:48:28;10.35;;;8.15;;
3613;SDS011;1821;50.936;6.854;2023-06-26T02:49:10;8.48;;;7.20;;
3613;SDS011;1821;50.936;6.854;2023-06-26T02:49:53;7.78;;;6.70;;
3613;SDS011;1821;50.936;6.854;2023-06-26T02:50:35;8.38;;;7.32;;
3613;SDS011;1821;50.936;6.854;2023-06-26T02:51:18;7.97;;;6.88;;
3613;SDS011;1821;50.936;6.854;2023-06-26T02:52:00;8.48;;;6.97;;
3613;SDS011;1821;50.936;6.854;2023-06-26T02:52:42;10.38;;;7.60;;
3613;SDS011;1821;50.936;6.854;2023-06-26T02:53:25;8.77;;;6.80;;
3613;SDS011;1821;50.936;6.854;2023-06-26T02:54:09;11.55;;;7.65;;
3613;SDS011;1821;50.936;6.854;2023-06-26T02:54:51;8.77;;;7.18;;
3613;SDS011;1821;50.936;6.854;2023-06-26T02:55:36;8.23;;;7.10;;
3613;SDS011;1821;50.936;6.854;2023-06-26T02:56:18;10.32;;;7.68;;
3613;SDS011;1821;50.936;6.854;2023-06-26T02:57:01;8.65;;;7.53;;
3613;SDS011;1821;50.936;6.854;2023-06-26T02:57:44;9.80;;;7.70;;
3613;SDS011;1821;50.936;6.854;2023-06-26T02:58:26;8.50;;;6.93;;
3613;SDS011;1821;50.936;6.854;2023-06-26T02:59:09;8.32;;;7.07;;
3613;SDS011;1821;50.936;6.854;2023-06-26T02:59:53;8.90;;;7.00;;
3613;SDS011;1821;50.936;6.854;2023-06-26T03:00:35;8.60;;;6.32;;
3613;SDS011;1821;50.936;6.854;2023-06-26T03:01:24;8.15;;;6.93;;
3613;SDS011;1821;50.936;6.854;2023-06-26T03:02:07;8.10;;;7.10;;
3613;SDS011;1821;50.936;6.854;2023-06-26T03:02:50;8.45;;;6.93;;
3613;SDS011;1821;50.936;6.854;2023-06-26T03:03:34;10.10;;;7.15;;
3613;SDS011;1821;50.936;6.854;2023-06-26T03:04:23;10.30;;;6.40;;
3613;SDS011;1821;50.936;6.854;2023-06-26T03:05:06;7.75;;;6.22;;
3613;SDS011;1821;50.936;6.854;2023-06-26T03:05:51;7.20;;;6.40;;
3613;SDS011;1821;50.936;6.854;2023-06-26T03:06:34;7.25;;;6.47;;
3613;SDS011;1821;50.936;6.854;2023-06-26T03:07:16;7.25;;;6.30;;
3613;SDS011;1821;50.936;6.854;2023-06-26T03:07:59;9.00;;;6.70;;
3613;SDS011;1821;50.936;6.854;2023-06-26T03:08:41;8.48;;;6.25;;
3613;SDS011;1821;50.936;6.854;2023-06-26T03:09:24;7.85;;;6.20;;
3613;SDS011;1821;50.936;6.854;2023-06-26T03:10:09;7.38;;;6.40;;
3613;SDS011;1821;50.936;6.854;2023-06-26T03:10:51;7.78;;;6.45;;
3613;SDS011;1821;50.936;6.854;2023-06-26T03:11:34;7.50;;;6.20;;
3613;SDS011;1821;50.936;6.854;2023-06-26T03:12:18;7.57;;;6.15;;
3613;SDS011;1821;50.936;6.854;2023-06-26T03:13:01;7.25;;;6.22;;
3613;SDS011;1821;50.936;6.854;2023-06-26T03:13:43;7.22;;;6.50;;
3613;SDS011;1821;50.936;6.854;2023-06-26T03:14:26;7.53;;;6.07;;
3613;SDS011;1821;50.936;6.854;2023-06-26T03:15:08;7.30;;;6.07;;
3613;SDS011;1821;50.936;6.854;2023-06-26T03:15:54;7.00;;;5.90;;
3613;SDS011;1821;50.936;6.854;2023-06-26T03:16:37;6.95;;;5.97;;
3613;SDS011;1821;50.936;6.854;2023-06-26T03:17:19;7.22;;;6.32;;
3613;SDS011;1821;50.936;6.854;2023-06-26T03:18:01;7.80;;;6.50;;
3613;SDS011;1821;50.936;6.854;2023-06-26T03:18:44;7.38;;;6.00;;
3613;SDS011;1821;50.936;6.854;2023-06-26T03:19:26;7.00;;;6.15;;
3613;SDS011;1821;50.936;6.854;2023-06-26T03:20:09;7.22;;;6.22;;
3613;SDS011;1821;50.936;6.854;2023-06-26T03:20:52;6.90;;;6.20;;
3613;SDS011;1821;50.936;6.854;2023-06-26T03:21:37;7.35;;;6.65;;
3613;SDS011;1821;50.936;6.854;2023-06-26T03:22:21;7.40;;;6.50;;
3613;SDS011;1821;50.936;6.854;2023-06-26T03:23:04;7.93;;;6.30;;
3613;SDS011;1821;50.936;6.854;2023-06-26T03:23:46;7.50;;;5.93;;
3613;SDS011;1821;50.936;6.854;2023-06-26T03:24:28;7.95;;;6.07;;
3613;SDS011;1821;50.936;6.854;2023-06-26T03:25:11;7.65;;;6.85;;
3613;SDS011;1821;50.936;6.854;2023-06-26T03:25:53;8.88;;;6.60;;
3613;SDS011;1821;50.936;6.854;2023-06-26T03:26:36;8.02;;;6.22;;
3613;SDS011;1821;50.936;6.854;2023-06-26T03:27:18;6.85;;;5.75;;
3613;SDS011;1821;50.936;6.854;2023-06-26T03:28:02;7.85;;;6.75;;
3613;SDS011;1821;50.936;6.854;2023-06-26T03:28:44;7.45;;;6.25;;
3613;SDS011;1821;50.936;6.854;2023-06-26T03:29:27;8.07;;;6.10;;
3613;SDS011;1821;50.936;6.854;2023-06-26T03:30:11;8.63;;;6.40;;
3613;SDS011;1821;50.936;6.854;2023-06-26T03:30:53;8.00;;;6.15;;
3613;SDS011;1821;50.936;6.854;2023-06-26T03:31:36;8.57;;;5.82;;
3613;SDS011;1821;50.936;6.854;2023-06-26T03:32:18;10.18;;;6.20;;
3613;SDS011;1821;50.936;6.854;2023-06-26T03:33:00;9.32;;;6.47;;
3613;SDS011;1821;50.936;6.854;2023-06-26T03:33:42;7.30;;;6.53;;
3613;SDS011;1821;50.936;6.854;2023-06-26T03:34:25;7.90;;;6.38;;
3613;SDS011;1821;50.936;6.854;2023-06-26T03:35:07;6.93;;;6.10;;
3613;SDS011;1821;50.936;6.854;2023-06-26T03:35:52;8.30;;;6.22;;
3613;SDS011;1821;50.936;6.854;2023-06-26T03:36:35;7.00;;;6.30;;
3613;SDS011;1821;50.936;6.854;2023-06-26T03:37:17;7.13;;;6.43;;
3613;SDS011;1821;50.936;6.854;2023-06-26T03:38:00;8.82;;;6.30;;
3613;SDS011;1821;50.936;6.854;2023-06-26T03:38:43;8.48;;;6.10;;
3613;SDS011;1821;50.936;6.854;2023-06-26T03:39:28;8.45;;;5.47;;
3613;SDS011;1821;50.936;6.854;2023-06-26T03:40:12;7.95;;;5.50;;
3613;SDS011;1821;50.936;6.854;2023-06-26T03:40:55;8.93;;;6.20;;
3613;SDS011;1821;50.936;6.854;2023-06-26T03:41:38;8.85;;;6.22;;
3613;SDS011;1821;50.936;6.854;2023-06-26T03:42:20;8.95;;;6.68;;
3613;SDS011;1821;50.936;6.854;2023-06-26T03:43:02;9.88;;;6.40;;
3613;SDS011;1821;50.936;6.854;2023-06-26T03:43:45;8.85;;;6.22;;
3613;SDS011;1821;50.936;6.854;2023-06-26T03:44:27;6.50;;;5.80;;
3613;SDS011;1821;50.936;6.854;2023-06-26T03:45:09;7.65;;;5.85;;
3613;SDS011;1821;50.936;6.854;2023-06-26T03:45:52;8.68;;;5.80;;
3613;SDS011;1821;50.936;6.854;2023-06-26T03:46:34;7.45;;;6.55;;
3613;SDS011;1821;50.936;6.854;2023-06-26T03:47:17;8.63;;;6.35;;
3613;SDS011;1821;50.936;6.854;2023-06-26T03:47:59;8.23;;;6.10;;
3613;SDS011;1821;50.936;6.854;2023-06-26T03:48:42;7.80;;;6.03;;
3613;SDS011;1821;50.936;6.854;2023-06-26T03:49:24;10.55;;;6.18;;
3613;SDS011;1821;50.936;6.854;2023-06-26T03:50:06;7.57;;;5.93;;
3613;SDS011;1821;50.936;6.854;2023-06-26T03:50:49;8.23;;;6.03;;
3613;SDS011;1821;50.936;6.854;2023-06-26T03:51:31;7.95;;;5.63;;
3613;SDS011;1821;50.936;6.854;2023-06-26T03:52:16;6.18;;;5.45;;
3613;SDS011;1821;50.936;6.854;2023-06-26T03:53:00;6.95;;;5.93;;
3613;SDS011;1821;50.936;6.854;2023-06-26T03:53:43;9.68;;;5.70;;
3613;SDS011;1821;50.936;6.854;2023-06-26T03:54:25;7.75;;;5.65;;
3613;SDS011;1821;50.936;6.854;2023-06-26T03:55:08;7.85;;;6.05;;
3613;SDS011;1821;50.936;6.854;2023-06-26T03:55:50;7.97;;;6.18;;
3613;SDS011;1821;50.936;6.854;2023-06-26T03:56:33;8.60;;;5.50;;
3613;SDS011;1821;50.936;6.854;2023-06-26T03:57:15;9.80;;;5.40;;
3613;SDS011;1821;50.936;6.854;2023-06-26T03:57:57;8.00;;;5.20;;
3613;SDS011;1821;50.936;6.854;2023-06-26T03:58:40;8.57;;;5.75;;
3613;SDS011;1821;50.936;6.854;2023-06-26T03:59:22;8.10;;;6.00;;
3613;SDS011;1821;50.936;6.854;2023-06-26T04:00:04;7.70;;;5.28;;
3613;SDS011;1821;50.936;6.854;2023-06-26T04:00:49;8.80;;;5.80;;
3613;SDS011;1821;50.936;6.854;2023-06-26T04:01:31;7.35;;;5.80;;
3613;SDS011;1821;50.936;6.854;2023-06-26T04:02:14;8.48;;;6.18;;
3613;SDS011;1821;50.936;6.854;2023-06-26T04:02:56;7.88;;;6.43;;
3613;SDS011;1821;50.936;6.854;2023-06-26T04:03:41;6.28;;;5.18;;
3613;SDS011;1821;50.936;6.854;2023-06-26T04:04:23;8.60;;;5.45;;
3613;SDS011;1821;50.936;6.854;2023-06-26T04:05:06;8.20;;;6.03;;
3613;SDS011;1821;50.936;6.854;2023-06-26T04:05:48;7.72;;;6.03;;
3613;SDS011;1821;50.936;6.854;2023-06-26T04:06:30;6.85;;;5.50;;
3613;SDS011;1821;50.936;6.854;2023-06-26T04:07:13;8.20;;;5.35;;
3613;SDS011;1821;50.936;6.854;2023-06-26T04:07:55;7.63;;;6.15;;
3613;SDS011;1821;50.936;6.854;2023-06-26T04:08:38;8.65;;;6.18;;
3613;SDS011;1821;50.936;6.854;2023-06-26T04:09:20;6.47;;;5.57;;
3613;SDS011;1821;50.936;6.854;2023-06-26T04:10:02;6.90;;;5.55;;
3613;SDS011;1821;50.936;6.854;2023-06-26T04:10:45;6.80;;;5.80;;
3613;SDS011;1821;50.936;6.854;2023-06-26T04:11:31;7.38;;;5.50;;
3613;SDS011;1821;50.936;6.854;2023-06-26T04:12:16;10.13;;;6.07;;
3613;SDS011;1821;50.936;6.854;2023-06-26T04:12:58;7.95;;;5.85;;
3613;SDS011;1821;50.936;6.854;2023-06-26T04:13:43;7.40;;;5.30;;
3613;SDS011;1821;50.936;6.854;2023-06-26T04:14:25;9.52;;;5.53;;
3613;SDS011;1821;50.936;6.854;2023-06-26T04:15:07;11.27;;;5.43;;
3613;SDS011;1821;50.936;6.854;2023-06-26T04:15:49;9.18;;;5.65;;
3613;SDS011;1821;50.936;6.854;2023-06-26T04:16:32;8.88;;;5.10;;
3613;SDS011;1821;50.936;6.854;2023-06-26T04:17:14;6.60;;;5.35;;
3613;SDS011;1821;50.936;6.854;2023-06-26T04:17:58;6.32;;;5.47;;
3613;SDS011;1821;50.936;6.854;2023-06-26T04:18:41;7.15;;;5.78;;
3613;SDS011;1821;50.936;6.854;2023-06-26T04:19:25;7.18;;;5.60;;
3613;SDS011;1821;50.936;6.854;2023-06-26T04:20:08;8.65;;;5.75;;
3613;SDS011;1821;50.936;6.854;2023-06-26T04:21:04;9.27;;;5.55;;
3613;SDS011;1821;50.936;6.854;2023-06-26T04:21:48;8.38;;;5.55;;
3613;SDS011;1821;50.936;6.854;2023-06-26T04:22:30;8.68;;;5.45;;
3613;SDS011;1821;50.936;6.854;2023-06-26T04:23:12;8.35;;;5.63;;
3613;SDS011;1821;50.936;6.854;2023-06-26T04:23:54;8.73;;;5.60;;
3613;SDS011;1821;50.936;6.854;2023-06-26T04:24:37;10.13;;;6.35;;
3613;SDS011;1821;50.936;6.854;2023-06-26T04:25:19;8.15;;;6.30;;
3613;SDS011;1821;50.936;6.854;2023-06-26T04:26:01;7.43;;;6.05;;
3613;SDS011;1821;50.936;6.854;2023-06-26T04:26:48;6.40;;;5.63;;
3613;SDS011;1821;50.936;6.854;2023-06-26T04:27:31;6.25;;;5.13;;
3613;SDS011;1821;50.936;6.854;2023-06-26T04:28:16;9.35;;;6.05;;
3613;SDS011;1821;50.936;6.854;2023-06-26T04:28:58;8.48;;;5.57;;
3613;SDS011;1821;50.936;6.854;2023-06-26T04:29:41;7.07;;;5.73;;
3613;SDS011;1821;50.936;6.854;2023-06-26T04:30:23;7.72;;;5.32;;
3613;SDS011;1821;50.936;6.854;2023-06-26T04:31:05;8.65;;;5.03;;
3613;SDS011;1821;50.936;6.854;2023-06-26T04:31:48;7.72;;;5.70;;
3613;SDS011;1821;50.936;6.854;2023-06-26T04:32:30;8.88;;;5.72;;
3613;SDS011;1821;50.936;6.854;2023-06-26T04:33:13;8.43;;;5.32;;
3613;SDS011;1821;50.936;6.854;2023-06-26T04:33:56;7.57;;;5.30;;
3613;SDS011;1821;50.936;6.854;2023-06-26T04:34:41;8.00;;;5.40;;